Time;durP1;ratioP1;P1;durP2;ratioP2;P2;SDS_P1;SDS_P2;PMS_P1;PMS_P2;Temp;Humidity;BMP_temperature;BMP_pressure;BME280_temperature;BME280_humidity;BME280_pressure;Samples;Min_cycle;Max_cycle;Signal;HPM_P1;HPM_P2
2022/11/08 00:16:02;;;;;;;59.10;33.97;;;12.90;99.90;;;12.99;69.37;95411.66;5056119;28;20556;-56
2022/11/08 00:18:29;;;;;;;46.70;31.00;;;12.90;99.90;;;13.02;69.39;95413.19;5043155;28;20439;-55
2022/11/08 00:21:00;;;;;;;56.13;30.73;;;12.90;99.90;;;13.02;69.24;95418.47;5023388;28;20506;-55
2022/11/08 00:23:27;;;;;;;48.83;31.47;;;12.90;99.90;;;13.04;69.40;95419.16;5016209;28;20449;-57
2022/11/08 00:25:55;;;;;;;77.17;32.13;;;12.90;99.90;;;13.03;69.18;95413.03;5022607;28;20453;-54
2022/11/08 00:28:22;;;;;;;46.40;27.77;;;12.90;99.90;;;13.06;69.07;95409.31;5023007;28;20472;-55
2022/11/08 00:30:49;;;;;;;51.47;29.90;;;12.90;99.90;;;13.06;69.26;95418.03;5022424;28;21055;-57
2022/11/08 00:33:18;;;;;;;46.80;28.17;;;12.90;99.90;;;13.08;69.14;95407.34;5023007;28;20453;-56
2022/11/08 00:35:45;;;;;;;59.30;27.53;;;13.00;99.90;;;13.06;69.26;95410.13;5022034;28;20468;-55
2022/11/08 00:38:12;;;;;;;57.87;31.73;;;13.00;99.90;;;13.09;69.37;95411.66;5016558;28;20526;-52
2022/11/08 00:40:39;;;;;;;60.60;32.87;;;13.00;99.90;;;13.09;69.12;95406.38;5017012;28;20481;-56
2022/11/08 00:43:07;;;;;;;55.00;31.60;;;13.00;99.90;;;13.11;69.10;95409.69;5018270;28;20456;-54
2022/11/08 00:45:34;;;;;;;55.63;28.33;;;13.00;99.90;;;13.11;68.77;95416.78;5015318;28;20496;-57
2022/11/08 00:48:02;;;;;;;53.30;30.27;;;13.00;99.90;;;13.12;69.17;95411.38;5021851;28;20845;-55
2022/11/08 00:50:30;;;;;;;60.40;33.23;;;13.00;99.90;;;13.12;69.20;95408.72;5021847;28;20841;-54
2022/11/08 00:52:57;;;;;;;55.73;29.40;;;13.00;99.90;;;13.12;69.15;95406.09;5016858;28;20857;-57
2022/11/08 00:55:25;;;;;;;50.23;30.27;;;13.00;99.90;;;13.13;69.24;95409.56;5018515;28;21012;-57
2022/11/08 00:57:52;;;;;;;51.30;30.77;;;13.00;99.90;;;13.13;68.79;95406.91;5018431;28;20477;-57
2022/11/08 01:00:19;;;;;;;45.97;28.20;;;13.00;99.90;;;13.12;68.79;95408.72;5021599;28;20469;-54
2022/11/08 01:02:47;;;;;;;51.63;30.90;;;13.00;99.90;;;13.11;69.08;95403.59;5017553;28;20918;-60
2022/11/08 01:05:14;;;;;;;52.60;28.40;;;13.00;99.90;;;13.09;69.06;95404.56;5014798;28;20486;-57
2022/11/08 01:07:43;;;;;;;55.70;30.33;;;13.00;99.90;;;13.09;69.13;95403.72;5020732;28;20984;-58
2022/11/08 01:10:11;;;;;;;58.43;31.67;;;13.00;99.90;;;13.08;69.40;95404.69;5018540;28;21008;-57
2022/11/08 01:12:38;;;;;;;53.87;30.70;;;13.00;99.90;;;13.06;69.27;95398.75;5022358;28;20506;-56
2022/11/08 01:15:06;;;;;;;53.13;31.10;;;13.00;99.90;;;13.06;69.23;95398.75;5019817;28;20481;-55
2022/11/08 01:17:33;;;;;;;47.37;29.67;;;13.00;99.90;;;13.05;69.07;95402.34;5008901;28;20804;-58
2022/11/08 01:20:01;;;;;;;55.70;31.57;;;13.00;99.90;;;13.05;69.20;95407.63;5008795;28;20604;-55
2022/11/08 01:22:28;;;;;;;50.53;31.60;;;12.90;99.90;;;13.05;69.28;95404.97;5008807;28;20472;-55
2022/11/08 01:24:57;;;;;;;52.33;29.10;;;12.90;99.90;;;13.04;69.31;95403.31;5008265;28;21029;-57
2022/11/08 01:27:24;;;;;;;56.47;29.80;;;12.90;99.90;;;13.02;69.16;95405.25;5004978;28;21056;-56
2022/11/08 01:29:51;;;;;;;60.63;31.43;;;12.90;99.90;;;13.01;69.29;95407.09;5008400;28;20998;-57
2022/11/08 01:32:18;;;;;;;55.80;28.83;;;12.90;99.90;;;13.02;69.21;95415.81;5008486;28;20495;-56
2022/11/08 01:34:45;;;;;;;51.70;27.77;;;12.90;99.90;;;13.01;69.34;95403.59;5007491;28;20474;-57
2022/11/08 01:37:13;;;;;;;50.03;29.97;;;12.90;99.90;;;13.01;69.17;95403.59;5008395;28;20516;-57
2022/11/08 01:39:40;;;;;;;51.90;29.20;;;12.90;99.90;;;13.02;68.94;95407.91;5006876;28;20483;-54
2022/11/08 01:42:09;;;;;;;49.43;29.63;;;12.90;99.90;;;13.01;69.56;95399.16;5008072;28;20461;-59
2022/11/08 01:45:00;;;;;;;51.93;28.97;;;12.90;99.90;;;13.00;69.27;95386.91;5007425;28;20568;-55
2022/11/08 01:47:27;;;;;;;52.93;30.10;;;12.90;99.90;;;13.01;69.17;95406.22;5005655;28;20449;-56
2022/11/08 01:49:54;;;;;;;43.80;27.67;;;12.90;99.90;;;13.00;69.24;95397.47;5008155;28;20469;-57
2022/11/08 01:52:29;;;;;;;48.90;29.63;;;12.90;99.90;;;12.98;69.12;95396.81;5007901;28;20458;-54
2022/11/08 01:55:10;;;;;;;52.97;27.83;;;12.90;99.90;;;12.96;69.07;95400.53;5005413;28;20481;-56
2022/11/08 01:57:43;;;;;;;54.03;27.07;;;12.90;99.90;;;12.91;68.96;95401.78;5003950;28;20457;-57
2022/11/08 02:00:12;;;;;;;43.10;27.57;;;12.80;99.90;;;12.89;68.83;95409.03;5007866;28;20478;-57
2022/11/08 02:02:41;;;;;;;43.00;25.73;;;12.80;99.90;;;12.89;68.72;95408.22;5007874;28;21073;-57
2022/11/08 02:05:23;;;;;;;47.50;26.10;;;12.80;99.90;;;12.86;69.06;95406.66;5007450;28;20497;-56
2022/11/08 02:07:52;;;;;;;40.37;24.17;;;12.80;99.90;;;12.86;68.72;95404.03;5002470;28;20442;-56
2022/11/08 02:10:20;;;;;;;46.53;28.17;;;12.80;99.90;;;12.86;68.74;95413.78;5007544;28;20481;-57
2022/11/08 02:12:48;;;;;;;41.40;25.17;;;12.80;99.90;;;12.86;69.18;95401.41;5007587;28;20449;-54
2022/11/08 02:15:16;;;;;;;46.47;26.80;;;12.80;99.90;;;12.85;69.14;95405.00;5009563;28;20493;-56
2022/11/08 02:17:43;;;;;;;52.03;27.30;;;12.80;99.90;;;12.86;68.86;95408.50;5007488;28;20464;-56
2022/11/08 02:20:12;;;;;;;41.43;26.10;;;12.70;99.90;;;12.84;68.92;95403.34;5007783;28;20535;-57
2022/11/08 02:22:43;;;;;;;40.77;26.70;;;12.80;99.90;;;12.85;69.24;95404.16;5008214;28;20461;-55
2022/11/08 02:25:14;;;;;;;49.30;25.13;;;12.70;99.90;;;12.86;69.06;95403.22;5007689;28;20494;-57
2022/11/08 02:27:42;;;;;;;42.53;25.60;;;12.80;99.90;;;12.86;69.14;95397.94;5006839;28;20512;-56
2022/11/08 02:30:11;;;;;;;44.93;27.10;;;12.80;99.90;;;12.88;69.00;95394.16;5007341;28;20506;-55
2022/11/08 02:32:39;;;;;;;40.80;25.87;;;12.80;99.90;;;12.88;69.54;95399.44;5006896;28;20454;-56
2022/11/08 02:35:10;;;;;;;53.40;27.60;;;12.80;99.90;;;12.89;69.12;95395.84;5007509;28;20466;-56
2022/11/08 02:37:37;;;;;;;46.20;26.60;;;12.80;99.90;;;12.90;69.17;95396.66;5003670;28;20457;-57
2022/11/08 02:40:06;;;;;;;57.43;27.17;;;12.80;99.90;;;12.93;68.81;95398.19;5003613;28;20474;-57
2022/11/08 02:42:37;;;;;;;43.97;28.77;;;12.80;99.90;;;12.96;69.40;95404.00;5007090;28;20458;-54
2022/11/08 02:45:06;;;;;;;46.53;25.13;;;12.90;99.90;;;12.99;69.21;95398.44;5006907;28;20521;-57
2022/11/08 02:47:33;;;;;;;45.43;26.27;;;12.90;99.90;;;13.02;69.24;95399.97;5006735;28;20456;-57
2022/11/08 02:50:01;;;;;;;40.83;25.97;;;12.90;99.90;;;13.02;69.45;95398.16;5007180;28;20485;-55
2022/11/08 02:52:28;;;;;;;50.63;27.57;;;12.90;99.90;;;13.04;69.25;95395.38;5007053;28;20458;-56
2022/11/08 02:54:55;;;;;;;51.17;28.10;;;12.90;99.90;;;13.03;69.40;95396.38;5006802;28;20477;-55
2022/11/08 02:57:23;;;;;;;52.57;27.40;;;12.90;99.90;;;13.04;69.56;95400.66;5006520;28;20520;-56
2022/11/08 02:59:51;;;;;;;44.03;27.83;;;12.90;99.90;;;13.05;69.34;95400.53;5006479;28;20516;-56
2022/11/08 03:02:19;;;;;;;42.70;29.10;;;12.90;99.90;;;13.08;69.61;95399.41;5006012;28;21194;-57
2022/11/08 03:04:46;;;;;;;46.57;28.00;;;13.00;99.90;;;13.08;69.35;95402.06;5006540;28;20493;-56
2022/11/08 03:07:13;;;;;;;47.97;27.20;;;13.00;99.90;;;13.09;69.17;95404.56;4999695;28;20457;-57
2022/11/08 03:09:40;;;;;;;51.30;29.43;;;13.00;99.90;;;13.11;69.27;95404.41;5006815;28;20552;-56
2022/11/08 03:12:08;;;;;;;50.50;27.80;;;13.00;99.90;;;13.10;69.17;95405.38;5006657;28;20492;-56
2022/11/08 03:14:35;;;;;;;51.27;28.70;;;13.00;99.90;;;13.09;69.36;95406.38;5008984;28;20473;-57
2022/11/08 03:17:04;;;;;;;56.17;29.43;;;13.00;99.90;;;13.08;69.37;95415.25;5006604;28;20468;-57
2022/11/08 03:19:31;;;;;;;47.30;28.30;;;13.00;99.90;;;13.10;69.80;95413.31;5006148;28;20524;-56
2022/11/08 03:21:58;;;;;;;57.93;29.07;;;13.00;99.90;;;13.09;70.11;95420.41;5006525;28;20453;-54
2022/11/08 03:24:26;;;;;;;48.43;27.53;;;13.00;99.90;;;13.12;70.62;95416.66;5006049;28;20485;-58
2022/11/08 03:26:53;;;;;;;56.07;28.73;;;13.00;99.90;;;13.12;70.93;95421.94;5006224;28;20965;-57
2022/11/08 03:29:20;;;;;;;42.67;28.43;;;13.00;99.90;;;13.11;71.21;95412.34;5006390;28;20470;-55
2022/11/08 03:31:47;;;;;;;49.00;29.20;;;13.00;99.90;;;13.09;70.97;95411.66;5005877;28;20527;-54
2022/11/08 03:34:16;;;;;;;44.83;27.23;;;13.00;99.90;;;13.09;71.36;95416.94;5006226;28;21021;-55
2022/11/08 03:36:44;;;;;;;51.70;30.90;;;13.00;99.90;;;13.08;71.37;95412.63;5004071;28;20457;-57
2022/11/08 03:39:11;;;;;;;52.67;28.90;;;13.00;99.90;;;13.08;71.56;95416.09;5005512;28;20474;-57
2022/11/08 03:41:38;;;;;;;49.90;30.90;;;13.00;99.90;;;13.05;71.81;95415.53;5003038;28;20989;-58
2022/11/08 03:44:06;;;;;;;51.30;30.30;;;13.00;99.90;;;13.06;71.68;95418.03;5006240;28;20509;-56
2022/11/08 03:46:33;;;;;;;60.60;31.47;;;13.00;99.90;;;13.04;72.03;95414.72;5006232;28;20481;-54
2022/11/08 03:49:00;;;;;;;49.37;29.70;;;12.90;99.90;;;13.04;72.19;95419.16;5005892;28;20993;-56
2022/11/08 03:51:29;;;;;;;53.10;29.57;;;12.90;99.90;;;13.02;72.05;95423.75;5005952;28;20461;-53
2022/11/08 03:53:56;;;;;;;49.03;28.67;;;12.90;99.90;;;12.98;72.47;95414.44;5001957;28;20868;-54
2022/11/08 03:56:24;;;;;;;42.20;28.00;;;12.90;99.90;;;13.00;72.59;95409.88;5006391;28;20466;-57
2022/11/08 03:58:51;;;;;;;54.23;30.70;;;12.90;99.90;;;12.99;72.16;95416.09;5005461;28;20528;-57
2022/11/08 04:01:18;;;;;;;47.53;29.93;;;12.90;99.90;;;12.98;72.29;95417.06;5005131;28;20450;-57
2022/11/08 04:03:45;;;;;;;54.57;29.90;;;12.90;99.90;;;12.98;72.58;95411.78;5006003;28;20449;-56
2022/11/08 04:06:13;;;;;;;57.53;30.13;;;12.90;99.90;;;12.98;72.66;95415.28;4999702;28;20490;-57
2022/11/08 04:08:41;;;;;;;48.43;28.80;;;12.90;99.90;;;12.98;72.75;95411.78;5004478;28;20477;-57
2022/11/08 04:16:38;;;;;;;45.07;30.00;;;12.90;99.90;;;13.00;73.09;95407.22;5006060;28;20437;-56
2022/11/08 04:21:51;;;;;;;48.90;30.20;;;12.90;99.90;;;13.00;73.38;95394.03;5002313;28;20476;-56
2022/11/08 04:24:20;;;;;;;50.63;26.43;;;12.90;99.90;;;13.00;73.25;95405.41;5005450;28;20478;-57
2022/11/08 04:26:47;;;;;;;44.67;27.70;;;12.90;99.90;;;13.01;73.32;95395.66;5005806;28;20830;-55
2022/11/08 04:29:14;;;;;;;51.97;28.30;;;12.90;99.90;;;13.00;73.52;95405.41;5005505;28;20990;-62
2022/11/08 04:31:41;;;;;;;55.63;27.57;;;12.90;99.90;;;13.01;73.51;95403.59;5004798;28;20461;-56
2022/11/08 04:34:09;;;;;;;52.43;28.93;;;12.90;99.90;;;13.03;73.72;95404.31;5005335;28;20474;-58
2022/11/08 04:36:36;;;;;;;52.63;28.67;;;12.90;99.90;;;13.02;73.25;95400.81;5005442;28;20799;-56
2022/11/08 04:39:03;;;;;;;50.30;28.60;;;12.90;99.90;;;13.03;73.55;95401.66;5005866;28;20480;-56
2022/11/08 04:41:32;;;;;;;47.17;27.37;;;12.90;99.90;;;13.04;73.34;95398.03;5001752;28;20992;-56
2022/11/08 04:44:00;;;;;;;42.97;27.63;;;12.90;99.90;;;13.04;73.23;95413.88;5005604;28;20470;-57
2022/11/08 04:46:28;;;;;;;51.80;26.70;;;12.90;99.90;;;13.04;73.21;95414.72;5005301;28;20493;-56
2022/11/08 04:48:56;;;;;;;50.60;27.80;;;12.90;99.90;;;13.05;73.66;95418.19;5005793;28;20998;-55
2022/11/08 04:51:30;;;;;;;49.23;28.10;;;12.90;99.90;;;13.06;73.62;95417.22;5007403;28;20992;-54
2022/11/08 04:53:58;;;;;;;45.57;27.43;;;12.90;99.90;;;13.05;73.33;95413.72;5005495;28;21029;-59
2022/11/08 04:56:27;;;;;;;55.47;28.53;;;12.90;99.90;;;13.04;73.06;95411.22;5009087;28;20825;-56
2022/11/08 04:58:56;;;;;;;43.60;28.80;;;12.90;99.90;;;13.04;73.29;95403.31;5008867;28;20487;-56
2022/11/08 05:01:26;;;;;;;50.57;28.40;;;12.90;99.90;;;13.04;73.61;95405.94;5003514;28;20464;-55
2022/11/08 05:03:53;;;;;;;48.43;28.37;;;12.90;99.90;;;13.03;73.69;95423.59;5007027;28;20543;-54
2022/11/08 05:06:22;;;;;;;39.00;27.40;;;12.90;99.90;;;13.04;73.54;95425.28;5001238;28;20573;-55
2022/11/08 05:08:49;;;;;;;50.87;29.10;;;12.90;99.90;;;13.05;73.57;95428.75;5001074;28;20474;-56
2022/11/08 05:11:18;;;;;;;47.43;28.10;;;12.90;99.90;;;13.04;73.60;95433.22;5003631;28;20454;-55
2022/11/08 05:13:45;;;;;;;44.57;28.53;;;12.90;99.90;;;13.04;73.78;95419.16;5006962;28;20457;-55
2022/11/08 05:16:15;;;;;;;51.03;29.17;;;12.90;99.90;;;13.05;73.85;95420.81;5003168;28;20454;-58
2022/11/08 05:18:43;;;;;;;46.87;28.80;;;13.00;99.90;;;13.04;74.03;95427.94;4996659;28;20509;-56
2022/11/08 05:23:56;;;;;;;51.73;30.10;;;12.90;99.90;;;13.07;73.70;95424.16;5006001;28;20940;-57
2022/11/08 05:26:23;;;;;;;43.70;26.83;;;12.90;99.90;;;13.08;73.81;95425.81;4997622;28;20497;-56
2022/11/08 05:28:51;;;;;;;51.13;30.57;;;13.00;99.90;;;13.09;73.39;95427.50;4996682;28;20563;-55
2022/11/08 05:31:19;;;;;;;45.73;27.07;;;13.00;99.90;;;13.07;73.34;95424.16;4993885;28;20527;-55
2022/11/08 05:33:48;;;;;;;39.43;26.83;;;13.00;99.90;;;13.06;73.48;95422.50;4998493;28;20516;-57
2022/11/08 05:36:16;;;;;;;48.87;27.53;;;13.00;99.90;;;13.05;73.28;95431.38;4998445;28;20463;-57
2022/11/08 05:38:43;;;;;;;52.33;28.70;;;13.00;99.90;;;13.05;73.82;95439.31;5005729;28;20454;-57
2022/11/08 05:41:12;;;;;;;45.40;27.57;;;12.90;99.90;;;13.05;73.48;95437.50;4998966;28;20467;-58
2022/11/08 05:43:39;;;;;;;51.93;29.90;;;12.90;99.90;;;13.07;73.79;95440.00;5002169;28;20512;-56
2022/11/08 05:46:07;;;;;;;53.60;27.77;;;13.00;99.90;;;13.09;74.08;95443.34;4997439;28;20501;-58
2022/11/08 05:48:36;;;;;;;42.37;28.80;;;13.00;99.90;;;13.14;73.85;95449.03;5007793;28;20453;-56
2022/11/08 05:51:04;;;;;;;39.77;24.80;;;13.00;99.90;;;13.17;73.76;95446.09;4994073;28;20532;-56
2022/11/08 05:53:31;;;;;;;44.43;25.87;;;13.00;99.90;;;13.21;73.78;95452.75;4998132;28;20454;-58
2022/11/08 05:55:59;;;;;;;51.37;27.13;;;13.10;99.90;;;13.26;74.01;95453.19;5000820;28;20446;-59
2022/11/08 05:58:27;;;;;;;41.50;26.03;;;13.10;99.90;;;13.30;73.85;95452.91;5000755;28;20442;-58
2022/11/08 06:01:00;;;;;;;37.00;25.37;;;13.20;99.90;;;13.32;73.75;95457.03;4996845;28;20474;-58
2022/11/08 06:03:27;;;;;;;38.37;24.83;;;13.20;99.90;;;13.36;73.84;95462.94;5004392;28;20460;-56
2022/11/08 06:05:56;;;;;;;54.93;25.77;;;13.20;99.90;;;13.40;73.51;95464.28;4992729;28;20486;-58
2022/11/08 06:08:23;;;;;;;48.63;25.70;;;13.30;99.90;;;13.44;73.65;95458.56;5001119;28;20457;-56
2022/11/08 06:10:51;;;;;;;44.90;25.77;;;13.30;99.90;;;13.48;73.38;95458.28;4999033;28;20471;-58
2022/11/08 06:13:19;;;;;;;44.67;26.33;;;13.40;99.90;;;13.51;73.35;95463.28;5001775;28;20477;-57
2022/11/08 06:15:46;;;;;;;45.13;27.43;;;13.40;99.90;;;13.52;73.36;95464.97;5001096;28;20481;-58
2022/11/08 06:18:13;;;;;;;51.53;26.40;;;13.40;99.90;;;13.52;73.08;95473.72;4999984;28;20445;-58
2022/11/08 06:20:41;;;;;;;39.90;26.00;;;13.40;99.90;;;13.54;72.96;95468.28;5001767;28;20536;-56
2022/11/08 06:23:09;;;;;;;40.50;25.33;;;13.40;99.90;;;13.55;72.81;95470.78;5003164;28;20480;-54
2022/11/08 06:25:37;;;;;;;46.47;26.17;;;13.40;99.90;;;13.58;72.88;95480.25;4999481;28;20500;-58
2022/11/08 06:28:05;;;;;;;38.30;24.70;;;13.50;99.90;;;13.61;72.67;95480.78;5000832;28;20850;-58
2022/11/08 06:30:32;;;;;;;37.63;24.73;;;13.50;99.90;;;13.65;72.77;95485.78;5001299;28;20484;-57
2022/11/08 06:33:00;;;;;;;43.57;24.00;;;13.50;99.90;;;13.69;73.08;95481.91;5003298;28;20461;-57
2022/11/08 06:35:27;;;;;;;37.80;23.47;;;13.50;99.90;;;13.72;72.60;95486.91;5003112;28;20568;-58
2022/11/08 06:37:54;;;;;;;37.93;23.80;;;13.60;99.90;;;13.75;72.72;95486.59;5000004;28;20458;-56
2022/11/08 06:40:23;;;;;;;40.33;22.27;;;13.60;99.90;;;13.77;72.94;95488.13;5005992;28;20551;-59
2022/11/08 06:42:52;;;;;;;44.07;25.70;;;13.70;99.90;;;13.81;72.65;95493.97;5000029;28;20534;-58
2022/11/08 06:45:19;;;;;;;40.00;22.47;;;13.60;99.90;;;13.84;72.52;95496.31;5000525;28;20550;-57
2022/11/08 06:47:46;;;;;;;33.00;21.97;;;13.70;99.90;;;13.88;72.66;95495.06;4999708;28;20455;-57
2022/11/08 06:50:14;;;;;;;39.20;27.00;;;13.70;99.90;;;13.92;72.46;95499.06;5002494;28;20532;-55
2022/11/08 06:52:41;;;;;;;45.67;29.23;;;13.80;99.90;;;13.96;72.61;95495.16;5000480;28;20442;-57
2022/11/08 06:55:09;;;;;;;45.10;28.70;;;13.80;99.90;;;13.99;72.52;95494.88;5006330;28;20474;-55
2022/11/08 06:57:38;;;;;;;48.00;29.27;;;13.90;99.90;;;14.03;72.52;95490.13;5006438;28;20903;-58
2022/11/08 07:00:06;;;;;;;39.90;28.30;;;13.90;99.90;;;14.07;72.48;95493.31;5005079;28;21076;-59
2022/11/08 07:02:34;;;;;;;42.37;26.83;;;13.90;99.90;;;14.10;72.48;95501.78;5006283;28;20462;-55
2022/11/08 07:05:01;;;;;;;41.40;26.93;;;13.90;99.90;;;14.14;72.28;95494.38;5006286;28;20473;-57
2022/11/08 07:07:29;;;;;;;40.53;26.47;;;14.00;99.90;;;14.18;72.16;95497.59;5001336;28;20453;-58
2022/11/08 07:09:56;;;;;;;41.23;25.43;;;14.00;99.90;;;14.20;72.34;95499.09;5004833;28;20470;-59
2022/11/08 07:12:23;;;;;;;33.90;21.53;;;14.10;99.90;;;14.22;72.66;95497.16;5006965;28;20460;-58
2022/11/08 07:14:52;;;;;;;37.10;22.50;;;14.10;99.90;;;14.26;72.71;95495.84;5008441;28;20531;-56
2022/11/08 07:17:19;;;;;;;36.63;22.10;;;14.10;99.90;;;14.32;72.86;95505.84;5006412;28;20797;-55
2022/11/08 07:19:47;;;;;;;40.53;20.87;;;14.10;99.90;;;14.39;73.35;95502.63;5006511;28;20469;-57
2022/11/08 07:22:14;;;;;;;34.67;23.03;;;14.20;99.90;;;14.42;72.91;95507.63;5006424;28;20453;-59
2022/11/08 07:24:41;;;;;;;29.90;21.83;;;14.30;99.90;;;14.47;72.84;95508.03;4998879;28;20818;-57
2022/11/08 07:27:09;;;;;;;33.07;21.40;;;14.30;99.90;;;14.48;72.92;95513.16;5005968;28;20588;-57
2022/11/08 07:29:36;;;;;;;34.50;21.10;;;14.30;99.90;;;14.51;72.85;95512.03;5005533;28;20478;-56
2022/11/08 07:32:05;;;;;;;35.87;22.43;;;14.30;99.90;;;14.53;72.51;95508.25;5005595;28;20465;-57
2022/11/08 07:34:33;;;;;;;36.13;22.77;;;14.40;99.90;;;14.57;72.92;95514.06;5005208;28;20473;-56
2022/11/08 07:37:00;;;;;;;31.20;21.47;;;14.40;99.90;;;14.58;72.26;95510.47;5006292;28;20449;-56
2022/11/08 07:39:27;;;;;;;38.53;23.30;;;14.40;99.90;;;14.62;72.30;95517.13;5006140;28;20469;-55
2022/11/08 07:41:55;;;;;;;35.63;22.63;;;14.50;99.90;;;14.63;71.88;95512.69;5003015;28;20985;-57
2022/11/08 07:44:22;;;;;;;33.77;22.40;;;14.50;99.90;;;14.63;72.22;95518.00;5005956;28;20703;-57
2022/11/08 07:46:49;;;;;;;40.73;23.60;;;14.50;99.90;;;14.61;71.92;95515.50;5005986;28;20504;-55
2022/11/08 07:49:19;;;;;;;38.43;23.27;;;14.50;99.90;;;14.61;71.96;95519.94;5005674;28;20477;-61
2022/11/08 07:51:46;;;;;;;37.77;22.20;;;14.50;99.90;;;14.61;72.04;95514.63;5003466;28;20446;-57
2022/11/08 07:54:14;;;;;;;37.57;23.33;;;14.50;99.90;;;14.63;71.82;95515.34;5005804;28;20501;-57
2022/11/08 07:56:41;;;;;;;38.90;24.90;;;14.50;99.90;;;14.62;71.54;95517.13;5006064;28;21056;-56
2022/11/08 07:59:08;;;;;;;36.20;22.90;;;14.50;99.90;;;14.64;71.68;95509.91;4997969;28;20536;-57
2022/11/08 08:01:36;;;;;;;36.23;24.20;;;14.50;99.90;;;14.66;71.93;95507.09;5005824;28;20454;-56
2022/11/08 08:04:03;;;;;;;42.87;24.00;;;14.50;99.90;;;14.68;71.66;95508.59;5005876;28;20635;-56
2022/11/08 08:06:32;;;;;;;41.10;22.20;;;14.50;99.90;;;14.74;71.94;95514.28;5001865;28;20481;-56
2022/11/08 08:08:59;;;;;;;42.53;24.23;;;14.50;99.90;;;14.78;71.88;95515.66;4999095;28;20469;-58
2022/11/08 08:11:27;;;;;;;44.17;24.80;;;14.60;99.90;;;14.84;71.71;95509.75;5005919;28;20973;-57
2022/11/08 08:13:55;;;;;;;43.40;25.03;;;14.60;99.90;;;14.87;71.60;95509.44;5008662;28;20475;-61
2022/11/08 08:16:22;;;;;;;34.67;22.00;;;14.70;99.90;;;14.90;71.43;95505.69;5006150;28;20461;-53
2022/11/08 08:18:50;;;;;;;37.03;23.97;;;14.70;99.90;;;14.94;71.23;95507.88;5005275;28;20450;-55
2022/11/08 08:21:17;;;;;;;36.63;22.90;;;14.80;99.90;;;14.97;71.13;95506.75;5002336;28;20984;-57
2022/11/08 08:23:46;;;;;;;42.53;25.23;;;14.80;99.90;;;15.00;70.99;95512.56;5005745;28;20476;-58
2022/11/08 08:26:13;;;;;;;31.67;21.30;;;14.80;99.90;;;15.03;70.96;95512.25;5007536;28;20497;-57
2022/11/08 08:28:40;;;;;;;49.10;21.00;;;14.90;99.90;;;15.06;70.58;95513.78;5009065;28;20965;-58
2022/11/08 08:31:08;;;;;;;37.80;22.37;;;14.90;99.90;;;15.08;70.56;95516.28;5008732;28;20457;-55
2022/11/08 08:33:36;;;;;;;31.67;20.23;;;14.90;99.90;;;15.10;70.45;95509.81;5008653;28;20953;-57
2022/11/08 08:36:03;;;;;;;33.70;20.03;;;14.90;99.90;;;15.14;70.35;95515.69;5009459;28;20458;-54
2022/11/08 08:38:31;;;;;;;31.50;20.80;;;15.00;99.90;;;15.16;70.18;95511.88;5009284;28;20808;-57
2022/11/08 08:41:00;;;;;;;35.17;22.07;;;15.00;99.90;;;15.22;70.07;95511.25;5008902;28;21032;-55
2022/11/08 08:43:27;;;;;;;28.77;18.87;;;15.00;99.90;;;15.29;69.83;95518.59;5009574;28;20541;-58
2022/11/08 08:45:54;;;;;;;36.90;21.93;;;15.10;99.90;;;15.36;69.93;95515.19;5009322;28;20571;-58
2022/11/08 08:48:22;;;;;;;32.70;21.70;;;15.20;99.90;;;15.43;69.51;95520.72;5009122;28;20453;-58
2022/11/08 08:50:49;;;;;;;35.20;22.87;;;15.20;99.90;;;15.49;69.23;95527.22;5008559;28;21024;-56
2022/11/08 08:53:16;;;;;;;40.33;23.83;;;15.30;99.90;;;15.54;69.26;95528.44;5006619;28;20954;-58
2022/11/08 08:55:44;;;;;;;37.70;24.70;;;15.30;99.90;;;15.58;69.09;95519.19;5008490;28;20473;-56
2022/11/08 08:58:12;;;;;;;31.97;21.70;;;15.40;99.90;;;15.63;68.91;95531.97;5007532;28;20449;-57
2022/11/08 09:00:40;;;;;;;31.70;20.03;;;15.40;99.90;;;15.66;68.61;95518.41;5005627;28;20500;-56
2022/11/08 09:03:08;;;;;;;31.10;20.63;;;15.50;99.90;;;15.69;68.70;95520.75;5003746;28;20465;-56
2022/11/08 09:05:36;;;;;;;33.70;20.97;;;15.50;99.90;;;15.75;68.45;95525.44;5000399;28;20599;-56
2022/11/08 09:08:03;;;;;;;35.63;20.73;;;15.60;99.90;;;15.83;67.65;95518.53;5004544;28;20461;-56
2022/11/08 09:10:31;;;;;;;34.50;20.60;;;15.60;99.90;;;15.87;67.86;95517.25;5002411;28;21098;-58
2022/11/08 09:12:58;;;;;;;36.03;21.20;;;15.70;99.90;;;15.89;67.58;95516.06;5001811;28;20462;-57
2022/11/08 09:15:27;;;;;;;30.50;20.07;;;15.70;99.90;;;15.95;67.22;95510.16;5003448;28;20554;-59
2022/11/08 09:17:54;;;;;;;30.90;18.83;;;15.70;99.90;;;16.02;67.47;95518.34;5002904;28;20627;-57
2022/11/08 09:20:22;;;;;;;34.27;20.27;;;15.80;99.90;;;16.09;67.27;95514.03;5003477;28;20480;-57
2022/11/08 09:22:50;;;;;;;37.30;20.30;;;15.90;99.90;;;16.18;66.93;95519.41;5001096;28;20486;-56
2022/11/08 09:25:17;;;;;;;33.03;19.13;;;16.00;99.90;;;16.27;66.77;95523.75;5004850;28;20477;-59
2022/11/08 09:27:45;;;;;;;64.10;29.37;;;16.10;99.90;;;16.36;66.62;95520.16;5001777;28;20596;-57
2022/11/08 09:30:12;;;;;;;42.33;23.77;;;16.10;99.90;;;16.44;66.41;95520.19;5003797;28;20814;-58
2022/11/08 09:32:41;;;;;;;35.13;23.97;;;16.20;99.90;;;16.53;66.44;95512.22;4998739;28;20997;-57
2022/11/08 09:35:08;;;;;;;40.37;24.10;;;16.30;99.90;;;16.61;66.40;95515.75;5004619;28;20506;-56
2022/11/08 09:37:36;;;;;;;59.23;27.87;;;16.40;99.90;;;16.71;65.67;95515.63;5000793;28;20878;-57
2022/11/08 09:40:03;;;;;;;82.57;32.83;;;16.50;99.90;;;16.80;65.75;95505.84;5003695;28;20505;-57
2022/11/08 09:42:44;;;;;;;45.60;24.67;;;16.60;99.90;;;16.90;65.52;95498.59;5004131;28;20461;-57
2022/11/08 09:45:32;;;;;;;37.17;19.93;;;16.70;99.90;;;17.00;65.36;95501.09;5003587;28;21032;-57
2022/11/08 09:48:02;;;;;;;31.57;20.67;;;16.80;99.90;;;17.07;64.66;95502.13;4999658;28;20489;-55
2022/11/08 09:50:36;;;;;;;31.20;18.33;;;16.80;99.90;;;17.14;63.92;95500.44;5003137;28;20544;-57
2022/11/08 09:53:14;;;;;;;34.07;20.60;;;16.90;99.90;;;17.17;64.20;95499.28;5005534;28;20930;-56
2022/11/08 09:55:44;;;;;;;29.87;18.13;;;16.90;99.90;;;17.23;63.54;95503.09;5007582;28;20476;-57
2022/11/08 09:58:26;;;;;;;25.20;18.60;;;17.00;99.90;;;17.27;63.35;95496.47;5007616;28;20467;-56
2022/11/08 10:00:53;;;;;;;23.40;17.07;;;17.00;99.90;;;17.32;62.03;95500.31;5007695;28;20477;-57
2022/11/08 10:03:23;;;;;;;25.97;18.60;;;17.10;99.20;;;17.35;62.12;95486.66;5006160;28;20534;-56
2022/11/08 10:06:21;;;;;;;28.67;18.30;;;17.10;98.90;;;17.43;61.64;95483.19;5004905;28;20473;-55
2022/11/08 10:08:55;;;;;;;34.93;20.03;;;17.20;99.10;;;17.52;62.24;95482.19;5006999;28;20901;-58
2022/11/08 10:11:36;;;;;;;28.80;18.53;;;17.30;99.40;;;17.69;62.29;95483.00;5005931;28;20512;-58
2022/11/08 10:14:15;;;;;;;29.00;18.00;;;17.40;99.50;;;17.94;62.29;95480.31;5007419;28;20477;-57
2022/11/08 10:16:46;;;;;;;25.43;17.10;;;17.60;99.40;;;18.21;61.71;95476.38;5006550;28;20445;-57
2022/11/08 10:19:48;;;;;;;28.90;18.50;;;17.80;99.20;;;18.57;60.43;95475.88;5004137;28;20507;-57
2022/11/08 10:22:19;;;;;;;27.40;18.33;;;18.20;98.80;;;18.86;59.37;95469.09;5002486;28;20450;-58
2022/11/08 10:24:53;;;;;;;28.87;17.70;;;18.50;97.70;;;19.10;59.27;95465.44;5003125;28;20476;-59
2022/11/08 10:27:30;;;;;;;25.63;16.13;;;18.80;97.20;;;19.61;58.15;95467.53;5006967;28;20485;-58
2022/11/08 10:30:00;;;;;;;22.77;16.90;;;19.20;97.10;;;20.14;56.80;95470.16;5005055;28;20596;-57
2022/11/08 10:32:29;;;;;;;27.23;18.43;;;19.70;95.90;;;20.62;56.49;95467.09;5005894;28;20462;-54
2022/11/08 10:35:04;;;;;;;20.90;15.70;;;20.10;95.60;;;21.05;54.71;95459.16;5006747;28;20481;-57
2022/11/08 10:37:31;;;;;;;23.50;17.00;;;20.60;94.40;;;21.45;54.00;95459.50;5006718;28;20456;-56